sensor_id;sensor_type;location;lat;lon;timestamp;P1;durP1;ratioP1;P2;durP2;ratioP2
9974;SDS011;5028;50.974;4.968;2023-04-01T00:01:09;8.67;;;1.80;;
9974;SDS011;5028;50.974;4.968;2023-04-01T00:03:47;6.20;;;1.63;;
9974;SDS011;5028;50.974;4.968;2023-04-01T00:06:24;6.07;;;1.60;;
9974;SDS011;5028;50.974;4.968;2023-04-01T00:08:52;5.50;;;1.60;;
9974;SDS011;5028;50.974;4.968;2023-04-01T00:11:29;6.10;;;1.70;;
9974;SDS011;5028;50.974;4.968;2023-04-01T00:14:05;5.37;;;1.50;;
9974;SDS011;5028;50.974;4.968;2023-04-01T00:16:34;5.17;;;1.50;;
9974;SDS011;5028;50.974;4.968;2023-04-01T00:19:09;4.20;;;1.20;;
9974;SDS011;5028;50.974;4.968;2023-04-01T00:21:38;4.43;;;1.67;;
9974;SDS011;5028;50.974;4.968;2023-04-01T00:24:19;4.50;;;1.40;;
9974;SDS011;5028;50.974;4.968;2023-04-01T00:26:57;4.03;;;1.30;;
9974;SDS011;5028;50.974;4.968;2023-04-01T00:29:26;3.47;;;1.33;;
9974;SDS011;5028;50.974;4.968;2023-04-01T00:32:04;3.60;;;1.33;;
9974;SDS011;5028;50.974;4.968;2023-04-01T00:34:40;2.83;;;1.33;;
9974;SDS011;5028;50.974;4.968;2023-04-01T00:37:21;3.37;;;1.27;;
9974;SDS011;5028;50.974;4.968;2023-04-01T00:39:57;4.10;;;1.60;;
9974;SDS011;5028;50.974;4.968;2023-04-01T00:42:27;5.43;;;1.60;;
9974;SDS011;5028;50.974;4.968;2023-04-01T00:44:56;4.13;;;1.37;;
9974;SDS011;5028;50.974;4.968;2023-04-01T00:47:32;3.90;;;1.20;;
9974;SDS011;5028;50.974;4.968;2023-04-01T00:50:00;4.60;;;1.30;;
9974;SDS011;5028;50.974;4.968;2023-04-01T00:52:29;4.30;;;1.30;;
9974;SDS011;5028;50.974;4.968;2023-04-01T00:55:05;6.07;;;1.60;;
9974;SDS011;5028;50.974;4.968;2023-04-01T00:57:39;2.47;;;1.30;;
9974;SDS011;5028;50.974;4.968;2023-04-01T01:00:18;6.20;;;1.60;;
9974;SDS011;5028;50.974;4.968;2023-04-01T01:02:47;5.43;;;1.40;;
9974;SDS011;5028;50.974;4.968;2023-04-01T01:05:29;5.10;;;1.43;;
9974;SDS011;5028;50.974;4.968;2023-04-01T01:08:18;3.30;;;1.30;;
9974;SDS011;5028;50.974;4.968;2023-04-01T01:11:08;3.67;;;1.50;;
9974;SDS011;5028;50.974;4.968;2023-04-01T01:13:47;4.63;;;1.27;;
9974;SDS011;5028;50.974;4.968;2023-04-01T01:16:23;2.43;;;1.40;;
9974;SDS011;5028;50.974;4.968;2023-04-01T01:19:04;7.27;;;1.40;;
9974;SDS011;5028;50.974;4.968;2023-04-01T01:22:09;3.43;;;1.20;;
9974;SDS011;5028;50.974;4.968;2023-04-01T01:24:59;3.60;;;1.30;;
9974;SDS011;5028;50.974;4.968;2023-04-01T01:27:42;2.50;;;1.20;;
9974;SDS011;5028;50.974;4.968;2023-04-01T01:30:34;3.30;;;1.20;;
9974;SDS011;5028;50.974;4.968;2023-04-01T01:33:18;4.83;;;1.40;;
9974;SDS011;5028;50.974;4.968;2023-04-01T01:36:13;3.63;;;1.30;;
9974;SDS011;5028;50.974;4.968;2023-04-01T01:38:50;4.10;;;1.50;;
9974;SDS011;5028;50.974;4.968;2023-04-01T01:41:25;3.10;;;1.40;;
9974;SDS011;5028;50.974;4.968;2023-04-01T01:43:55;2.87;;;1.40;;
9974;SDS011;5028;50.974;4.968;2023-04-01T01:46:34;2.20;;;1.30;;
9974;SDS011;5028;50.974;4.968;2023-04-01T01:49:03;2.23;;;1.40;;
9974;SDS011;5028;50.974;4.968;2023-04-01T01:51:42;3.13;;;1.57;;
9974;SDS011;5028;50.974;4.968;2023-04-01T01:54:18;3.33;;;1.90;;
9974;SDS011;5028;50.974;4.968;2023-04-01T01:56:48;3.97;;;1.80;;
9974;SDS011;5028;50.974;4.968;2023-04-01T01:59:25;4.20;;;1.80;;
9974;SDS011;5028;50.974;4.968;2023-04-01T02:01:56;4.20;;;1.53;;
9974;SDS011;5028;50.974;4.968;2023-04-01T02:04:32;4.67;;;1.93;;
9974;SDS011;5028;50.974;4.968;2023-04-01T02:07:04;3.60;;;1.80;;
9974;SDS011;5028;50.974;4.968;2023-04-01T02:09:45;3.27;;;1.60;;
9974;SDS011;5028;50.974;4.968;2023-04-01T02:12:13;3.27;;;1.50;;
9974;SDS011;5028;50.974;4.968;2023-04-01T02:14:52;4.10;;;1.77;;
9974;SDS011;5028;50.974;4.968;2023-04-01T02:17:30;2.63;;;1.70;;
9974;SDS011;5028;50.974;4.968;2023-04-01T02:20:02;4.47;;;1.90;;
9974;SDS011;5028;50.974;4.968;2023-04-01T02:22:44;3.63;;;1.93;;
9974;SDS011;5028;50.974;4.968;2023-04-01T02:25:18;3.20;;;1.90;;
9974;SDS011;5028;50.974;4.968;2023-04-01T02:27:55;2.27;;;1.80;;
9974;SDS011;5028;50.974;4.968;2023-04-01T02:30:26;3.30;;;1.80;;
9974;SDS011;5028;50.974;4.968;2023-04-01T02:33:17;3.77;;;1.60;;
9974;SDS011;5028;50.974;4.968;2023-04-01T02:35:53;2.23;;;1.63;;
9974;SDS011;5028;50.974;4.968;2023-04-01T02:38:31;2.37;;;1.80;;
9974;SDS011;5028;50.974;4.968;2023-04-01T02:41:06;2.10;;;1.67;;
9974;SDS011;5028;50.974;4.968;2023-04-01T02:43:35;2.63;;;2.00;;
9974;SDS011;5028;50.974;4.968;2023-04-01T02:46:10;2.53;;;2.20;;
9974;SDS011;5028;50.974;4.968;2023-04-01T02:48:45;3.03;;;2.23;;
9974;SDS011;5028;50.974;4.968;2023-04-01T02:51:13;5.23;;;2.50;;
9974;SDS011;5028;50.974;4.968;2023-04-01T02:53:50;3.47;;;2.50;;
9974;SDS011;5028;50.974;4.968;2023-04-01T02:56:26;4.03;;;2.20;;
9974;SDS011;5028;50.974;4.968;2023-04-01T02:58:54;3.70;;;2.30;;
9974;SDS011;5028;50.974;4.968;2023-04-01T03:01:31;3.87;;;2.50;;
9974;SDS011;5028;50.974;4.968;2023-04-01T03:04:07;4.43;;;2.13;;
9974;SDS011;5028;50.974;4.968;2023-04-01T03:06:36;5.13;;;2.30;;
9974;SDS011;5028;50.974;4.968;2023-04-01T03:09:14;4.00;;;2.43;;
9974;SDS011;5028;50.974;4.968;2023-04-01T03:11:51;4.80;;;2.40;;
9974;SDS011;5028;50.974;4.968;2023-04-01T03:14:20;4.50;;;2.40;;
9974;SDS011;5028;50.974;4.968;2023-04-01T03:16:55;4.60;;;2.07;;
9974;SDS011;5028;50.974;4.968;2023-04-01T03:19:32;3.77;;;2.30;;
9974;SDS011;5028;50.974;4.968;2023-04-01T03:22:01;3.83;;;2.20;;
9974;SDS011;5028;50.974;4.968;2023-04-01T03:24:38;5.10;;;2.67;;
9974;SDS011;5028;50.974;4.968;2023-04-01T03:27:14;2.97;;;2.10;;
9974;SDS011;5028;50.974;4.968;2023-04-01T03:29:43;4.47;;;2.03;;
9974;SDS011;5028;50.974;4.968;2023-04-01T03:32:19;4.33;;;2.17;;
9974;SDS011;5028;50.974;4.968;2023-04-01T03:35:00;5.77;;;2.57;;
9974;SDS011;5028;50.974;4.968;2023-04-01T03:37:43;4.77;;;2.57;;
9974;SDS011;5028;50.974;4.968;2023-04-01T03:40:13;3.33;;;2.43;;
9974;SDS011;5028;50.974;4.968;2023-04-01T03:42:42;4.00;;;2.10;;
9974;SDS011;5028;50.974;4.968;2023-04-01T03:45:17;5.33;;;2.40;;
9974;SDS011;5028;50.974;4.968;2023-04-01T03:47:47;4.73;;;2.40;;
9974;SDS011;5028;50.974;4.968;2023-04-01T03:50:22;4.50;;;1.87;;
9974;SDS011;5028;50.974;4.968;2023-04-01T03:52:50;4.87;;;1.77;;
9974;SDS011;5028;50.974;4.968;2023-04-01T03:55:28;3.50;;;1.80;;
9974;SDS011;5028;50.974;4.968;2023-04-01T03:58:04;5.37;;;2.27;;
9974;SDS011;5028;50.974;4.968;2023-04-01T04:00:33;5.10;;;2.33;;
9974;SDS011;5028;50.974;4.968;2023-04-01T04:03:08;5.70;;;2.40;;
9974;SDS011;5028;50.974;4.968;2023-04-01T04:05:46;4.00;;;2.13;;
9974;SDS011;5028;50.974;4.968;2023-04-01T04:08:15;5.37;;;2.63;;
9974;SDS011;5028;50.974;4.968;2023-04-01T04:10:57;4.93;;;2.47;;
9974;SDS011;5028;50.974;4.968;2023-04-01T04:13:33;4.33;;;2.30;;
9974;SDS011;5028;50.974;4.968;2023-04-01T04:16:02;4.27;;;2.80;;
9974;SDS011;5028;50.974;4.968;2023-04-01T04:18:38;4.33;;;2.33;;
9974;SDS011;5028;50.974;4.968;2023-04-01T04:21:13;6.17;;;3.00;;
9974;SDS011;5028;50.974;4.968;2023-04-01T04:23:43;5.60;;;2.83;;
9974;SDS011;5028;50.974;4.968;2023-04-01T04:26:20;5.63;;;3.07;;
9974;SDS011;5028;50.974;4.968;2023-04-01T04:28:55;4.33;;;2.73;;
9974;SDS011;5028;50.974;4.968;2023-04-01T04:31:26;6.13;;;3.33;;
9974;SDS011;5028;50.974;4.968;2023-04-01T04:34:02;5.87;;;3.50;;
9974;SDS011;5028;50.974;4.968;2023-04-01T04:36:37;5.37;;;3.57;;
9974;SDS011;5028;50.974;4.968;2023-04-01T04:39:13;5.57;;;3.50;;
9974;SDS011;5028;50.974;4.968;2023-04-01T04:41:49;6.20;;;3.70;;
9974;SDS011;5028;50.974;4.968;2023-04-01T04:44:18;6.70;;;3.67;;
9974;SDS011;5028;50.974;4.968;2023-04-01T04:46:53;6.13;;;3.57;;
9974;SDS011;5028;50.974;4.968;2023-04-01T04:49:28;4.77;;;3.70;;
9974;SDS011;5028;50.974;4.968;2023-04-01T04:51:56;7.27;;;3.97;;
9974;SDS011;5028;50.974;4.968;2023-04-01T04:54:32;7.10;;;4.30;;
9974;SDS011;5028;50.974;4.968;2023-04-01T04:57:08;6.93;;;4.37;;
9974;SDS011;5028;50.974;4.968;2023-04-01T04:59:38;6.57;;;4.27;;
9974;SDS011;5028;50.974;4.968;2023-04-01T05:02:13;6.83;;;4.47;;
9974;SDS011;5028;50.974;4.968;2023-04-01T05:04:48;7.13;;;4.43;;
9974;SDS011;5028;50.974;4.968;2023-04-01T05:07:17;5.37;;;4.23;;
9974;SDS011;5028;50.974;4.968;2023-04-01T05:09:53;5.63;;;4.03;;
9974;SDS011;5028;50.974;4.968;2023-04-01T05:12:29;5.70;;;4.23;;
9974;SDS011;5028;50.974;4.968;2023-04-01T05:15:02;7.27;;;4.70;;
9974;SDS011;5028;50.974;4.968;2023-04-01T05:17:38;7.20;;;4.93;;
9974;SDS011;5028;50.974;4.968;2023-04-01T05:20:07;6.77;;;5.00;;
9974;SDS011;5028;50.974;4.968;2023-04-01T05:22:43;7.40;;;5.47;;
9974;SDS011;5028;50.974;4.968;2023-04-01T05:25:18;7.07;;;4.87;;
9974;SDS011;5028;50.974;4.968;2023-04-01T05:27:48;6.27;;;4.97;;
9974;SDS011;5028;50.974;4.968;2023-04-01T05:30:24;8.20;;;5.50;;
9974;SDS011;5028;50.974;4.968;2023-04-01T05:33:00;5.80;;;5.17;;
9974;SDS011;5028;50.974;4.968;2023-04-01T05:35:29;6.93;;;4.67;;
9974;SDS011;5028;50.974;4.968;2023-04-01T05:38:05;5.77;;;4.77;;
9974;SDS011;5028;50.974;4.968;2023-04-01T05:40:41;7.37;;;5.00;;
9974;SDS011;5028;50.974;4.968;2023-04-01T05:43:17;6.07;;;4.60;;
9974;SDS011;5028;50.974;4.968;2023-04-01T05:45:46;6.53;;;4.40;;
9974;SDS011;5028;50.974;4.968;2023-04-01T05:48:23;4.60;;;3.43;;
9974;SDS011;5028;50.974;4.968;2023-04-01T05:50:51;4.00;;;3.60;;
9974;SDS011;5028;50.974;4.968;2023-04-01T05:53:30;4.70;;;4.00;;
9974;SDS011;5028;50.974;4.968;2023-04-01T05:56:01;4.37;;;3.30;;
9974;SDS011;5028;50.974;4.968;2023-04-01T05:58:41;4.17;;;3.20;;
9974;SDS011;5028;50.974;4.968;2023-04-01T06:01:16;3.70;;;3.30;;
9974;SDS011;5028;50.974;4.968;2023-04-01T06:03:45;4.00;;;3.50;;
9974;SDS011;5028;50.974;4.968;2023-04-01T06:06:23;3.70;;;3.40;;
9974;SDS011;5028;50.974;4.968;2023-04-01T06:09:06;4.07;;;3.27;;
9974;SDS011;5028;50.974;4.968;2023-04-01T06:11:43;3.03;;;2.80;;
9974;SDS011;5028;50.974;4.968;2023-04-01T06:14:38;3.27;;;2.97;;
9974;SDS011;5028;50.974;4.968;2023-04-01T06:17:16;3.43;;;2.87;;
9974;SDS011;5028;50.974;4.968;2023-04-01T06:20:01;2.77;;;2.57;;
9974;SDS011;5028;50.974;4.968;2023-04-01T06:22:49;3.17;;;2.87;;
9974;SDS011;5028;50.974;4.968;2023-04-01T06:25:50;2.90;;;2.70;;
9974;SDS011;5028;50.974;4.968;2023-04-01T06:28:44;3.63;;;2.90;;
9974;SDS011;5028;50.974;4.968;2023-04-01T06:34:47;1.90;;;1.80;;
9974;SDS011;5028;50.974;4.968;2023-04-01T06:37:50;2.57;;;1.80;;
9974;SDS011;5028;50.974;4.968;2023-04-01T06:40:45;1.63;;;1.40;;
9974;SDS011;5028;50.974;4.968;2023-04-01T06:43:34;1.63;;;1.33;;
9974;SDS011;5028;50.974;4.968;2023-04-01T06:46:12;1.67;;;1.57;;
9974;SDS011;5028;50.974;4.968;2023-04-01T06:49:02;1.90;;;1.60;;
9974;SDS011;5028;50.974;4.968;2023-04-01T06:51:53;2.00;;;1.67;;
9974;SDS011;5028;50.974;4.968;2023-04-01T06:54:34;2.43;;;1.90;;
9974;SDS011;5028;50.974;4.968;2023-04-01T06:57:09;2.50;;;1.60;;
9974;SDS011;5028;50.974;4.968;2023-04-01T06:59:54;3.03;;;1.83;;
9974;SDS011;5028;50.974;4.968;2023-04-01T07:02:25;3.13;;;1.70;;
9974;SDS011;5028;50.974;4.968;2023-04-01T07:05:10;3.00;;;1.60;;
9974;SDS011;5028;50.974;4.968;2023-04-01T07:07:40;1.93;;;1.53;;
9974;SDS011;5028;50.974;4.968;2023-04-01T07:10:20;3.00;;;1.40;;
9974;SDS011;5028;50.974;4.968;2023-04-01T07:13:03;1.97;;;1.27;;
9974;SDS011;5028;50.974;4.968;2023-04-01T07:15:36;1.13;;;1.00;;
9974;SDS011;5028;50.974;4.968;2023-04-01T07:18:15;2.63;;;1.20;;
9974;SDS011;5028;50.974;4.968;2023-04-01T07:20:48;3.00;;;1.17;;
9974;SDS011;5028;50.974;4.968;2023-04-01T07:23:25;2.90;;;1.40;;
9974;SDS011;5028;50.974;4.968;2023-04-01T07:25:58;1.17;;;1.17;;
9974;SDS011;5028;50.974;4.968;2023-04-01T07:28:37;1.30;;;1.20;;
9974;SDS011;5028;50.974;4.968;2023-04-01T07:31:09;1.40;;;1.30;;
9974;SDS011;5028;50.974;4.968;2023-04-01T07:33:57;2.23;;;1.60;;
9974;SDS011;5028;50.974;4.968;2023-04-01T07:36:32;1.73;;;1.63;;
9974;SDS011;5028;50.974;4.968;2023-04-01T07:39:24;2.03;;;1.60;;
9974;SDS011;5028;50.974;4.968;2023-04-01T07:42:15;1.93;;;1.50;;
9974;SDS011;5028;50.974;4.968;2023-04-01T07:44:49;1.40;;;1.30;;
9974;SDS011;5028;50.974;4.968;2023-04-01T07:47:39;1.40;;;1.30;;
9974;SDS011;5028;50.974;4.968;2023-04-01T07:50:26;1.47;;;1.20;;
9974;SDS011;5028;50.974;4.968;2023-04-01T07:53:01;1.53;;;1.40;;
9974;SDS011;5028;50.974;4.968;2023-04-01T07:55:44;1.50;;;1.40;;
9974;SDS011;5028;50.974;4.968;2023-04-01T07:58:19;3.67;;;1.30;;
9974;SDS011;5028;50.974;4.968;2023-04-01T08:01:04;1.30;;;1.20;;
9974;SDS011;5028;50.974;4.968;2023-04-01T08:03:45;1.37;;;1.27;;
9974;SDS011;5028;50.974;4.968;2023-04-01T08:06:34;1.50;;;1.40;;
9974;SDS011;5028;50.974;4.968;2023-04-01T08:09:14;1.60;;;1.50;;
9974;SDS011;5028;50.974;4.968;2023-04-01T08:12:04;2.17;;;1.33;;
9974;SDS011;5028;50.974;4.968;2023-04-01T08:14:46;1.87;;;1.43;;
9974;SDS011;5028;50.974;4.968;2023-04-01T08:17:31;1.87;;;1.50;;
9974;SDS011;5028;50.974;4.968;2023-04-01T08:20:14;1.57;;;1.40;;
9974;SDS011;5028;50.974;4.968;2023-04-01T08:22:59;2.17;;;1.83;;
9974;SDS011;5028;50.974;4.968;2023-04-01T08:25:37;1.90;;;1.80;;
9974;SDS011;5028;50.974;4.968;2023-04-01T08:28:18;1.87;;;1.70;;
9974;SDS011;5028;50.974;4.968;2023-04-01T08:30:51;1.70;;;1.60;;
9974;SDS011;5028;50.974;4.968;2023-04-01T08:33:29;2.20;;;1.50;;
9974;SDS011;5028;50.974;4.968;2023-04-01T08:36:08;1.87;;;1.77;;
9974;SDS011;5028;50.974;4.968;2023-04-01T08:38:49;1.87;;;1.60;;
9974;SDS011;5028;50.974;4.968;2023-04-01T08:41:36;2.03;;;1.70;;
9974;SDS011;5028;50.974;4.968;2023-04-01T08:44:36;2.30;;;2.10;;
9974;SDS011;5028;50.974;4.968;2023-04-01T08:47:54;2.70;;;2.10;;
9974;SDS011;5028;50.974;4.968;2023-04-01T08:50:50;2.77;;;2.03;;
9974;SDS011;5028;50.974;4.968;2023-04-01T08:54:02;2.13;;;1.93;;
9974;SDS011;5028;50.974;4.968;2023-04-01T08:56:42;2.23;;;1.97;;
9974;SDS011;5028;50.974;4.968;2023-04-01T08:59:31;2.27;;;1.93;;
9974;SDS011;5028;50.974;4.968;2023-04-01T09:02:30;2.33;;;2.13;;
9974;SDS011;5028;50.974;4.968;2023-04-01T09:05:21;2.43;;;2.00;;
9974;SDS011;5028;50.974;4.968;2023-04-01T09:08:17;2.03;;;1.83;;
9974;SDS011;5028;50.974;4.968;2023-04-01T09:11:17;2.00;;;1.90;;
9974;SDS011;5028;50.974;4.968;2023-04-01T09:20:15;1.20;;;1.10;;
9974;SDS011;5028;50.974;4.968;2023-04-01T09:23:04;1.00;;;1.00;;
9974;SDS011;5028;50.974;4.968;2023-04-01T09:25:48;1.37;;;1.10;;
9974;SDS011;5028;50.974;4.968;2023-04-01T09:28:39;1.20;;;1.10;;
9974;SDS011;5028;50.974;4.968;2023-04-01T09:31:22;1.07;;;1.07;;
9974;SDS011;5028;50.974;4.968;2023-04-01T09:34:09;1.40;;;1.20;;
9974;SDS011;5028;50.974;4.968;2023-04-01T09:36:57;1.50;;;1.40;;
9974;SDS011;5028;50.974;4.968;2023-04-01T09:39:54;1.50;;;1.40;;
9974;SDS011;5028;50.974;4.968;2023-04-01T09:42:43;1.70;;;1.60;;
9974;SDS011;5028;50.974;4.968;2023-04-01T09:45:32;1.47;;;1.37;;
9974;SDS011;5028;50.974;4.968;2023-04-01T09:48:24;1.40;;;1.30;;
9974;SDS011;5028;50.974;4.968;2023-04-01T09:51:10;1.83;;;1.50;;
9974;SDS011;5028;50.974;4.968;2023-04-01T09:53:54;1.40;;;1.30;;
9974;SDS011;5028;50.974;4.968;2023-04-01T10:03:27;1.30;;;1.20;;
9974;SDS011;5028;50.974;4.968;2023-04-01T10:25:59;2.13;;;2.03;;
9974;SDS011;5028;50.974;4.968;2023-04-01T10:28:56;1.80;;;1.70;;
9974;SDS011;5028;50.974;4.968;2023-04-01T10:31:57;1.77;;;1.67;;
9974;SDS011;5028;50.974;4.968;2023-04-01T10:37:54;1.80;;;1.70;;
9974;SDS011;5028;50.974;4.968;2023-04-01T10:47:12;3.27;;;2.93;;
9974;SDS011;5028;50.974;4.968;2023-04-01T10:53:27;3.20;;;2.90;;
9974;SDS011;5028;50.974;4.968;2023-04-01T10:59:23;4.80;;;4.40;;
9974;SDS011;5028;50.974;4.968;2023-04-01T11:02:36;5.17;;;4.77;;
9974;SDS011;5028;50.974;4.968;2023-04-01T11:09:10;6.63;;;5.93;;
9974;SDS011;5028;50.974;4.968;2023-04-01T11:15:27;6.20;;;5.60;;
9974;SDS011;5028;50.974;4.968;2023-04-01T11:18:31;6.13;;;5.50;;
9974;SDS011;5028;50.974;4.968;2023-04-01T11:21:35;6.40;;;5.90;;
9974;SDS011;5028;50.974;4.968;2023-04-01T11:24:33;6.50;;;6.00;;
9974;SDS011;5028;50.974;4.968;2023-04-01T11:27:25;6.67;;;6.00;;
9974;SDS011;5028;50.974;4.968;2023-04-01T11:30:21;7.00;;;6.30;;
9974;SDS011;5028;50.974;4.968;2023-04-01T11:33:13;5.90;;;5.40;;
9974;SDS011;5028;50.974;4.968;2023-04-01T11:35:52;5.50;;;5.07;;
9974;SDS011;5028;50.974;4.968;2023-04-01T11:38:44;5.00;;;4.50;;
9974;SDS011;5028;50.974;4.968;2023-04-01T11:41:31;4.90;;;4.50;;
9974;SDS011;5028;50.974;4.968;2023-04-01T11:44:15;4.70;;;4.30;;
9974;SDS011;5028;50.974;4.968;2023-04-01T11:53:03;3.27;;;3.00;;
9974;SDS011;5028;50.974;4.968;2023-04-01T11:55:50;3.63;;;2.70;;
9974;SDS011;5028;50.974;4.968;2023-04-01T11:58:38;2.60;;;2.40;;
9974;SDS011;5028;50.974;4.968;2023-04-01T12:04:36;4.07;;;3.77;;
9974;SDS011;5028;50.974;4.968;2023-04-01T12:07:19;4.23;;;3.47;;
9974;SDS011;5028;50.974;4.968;2023-04-01T12:10:05;3.70;;;3.40;;
9974;SDS011;5028;50.974;4.968;2023-04-01T12:12:46;2.90;;;2.40;;
9974;SDS011;5028;50.974;4.968;2023-04-01T12:15:33;3.43;;;3.13;;
9974;SDS011;5028;50.974;4.968;2023-04-01T12:18:13;4.33;;;3.60;;
9974;SDS011;5028;50.974;4.968;2023-04-01T12:20:54;4.67;;;4.23;;
9974;SDS011;5028;50.974;4.968;2023-04-01T12:23:35;4.83;;;4.43;;
9974;SDS011;5028;50.974;4.968;2023-04-01T12:26:41;4.77;;;4.37;;
9974;SDS011;5028;50.974;4.968;2023-04-01T12:32:25;5.70;;;5.20;;
9974;SDS011;5028;50.974;4.968;2023-04-01T12:35:11;7.33;;;5.30;;
9974;SDS011;5028;50.974;4.968;2023-04-01T12:38:04;5.83;;;4.90;;
9974;SDS011;5028;50.974;4.968;2023-04-01T12:40:51;5.50;;;5.00;;
9974;SDS011;5028;50.974;4.968;2023-04-01T12:43:52;5.93;;;5.43;;
9974;SDS011;5028;50.974;4.968;2023-04-01T12:46:39;4.43;;;4.13;;
9974;SDS011;5028;50.974;4.968;2023-04-01T12:49:34;4.87;;;4.47;;
9974;SDS011;5028;50.974;4.968;2023-04-01T12:52:26;4.40;;;4.10;;
9974;SDS011;5028;50.974;4.968;2023-04-01T13:05:06;5.30;;;4.90;;
9974;SDS011;5028;50.974;4.968;2023-04-01T13:07:59;5.30;;;4.90;;
9974;SDS011;5028;50.974;4.968;2023-04-01T13:10:44;5.60;;;5.10;;
9974;SDS011;5028;50.974;4.968;2023-04-01T13:16:34;5.77;;;4.77;;
9974;SDS011;5028;50.974;4.968;2023-04-01T13:19:08;4.50;;;4.13;;
9974;SDS011;5028;50.974;4.968;2023-04-01T13:21:52;4.67;;;4.30;;
9974;SDS011;5028;50.974;4.968;2023-04-01T13:24:31;4.20;;;3.90;;
9974;SDS011;5028;50.974;4.968;2023-04-01T13:27:17;4.60;;;4.20;;
9974;SDS011;5028;50.974;4.968;2023-04-01T13:29:57;4.20;;;3.80;;
9974;SDS011;5028;50.974;4.968;2023-04-01T13:32:42;3.77;;;3.47;;
9974;SDS011;5028;50.974;4.968;2023-04-01T13:35:18;4.57;;;3.17;;
9974;SDS011;5028;50.974;4.968;2023-04-01T13:38:20;4.03;;;3.20;;
9974;SDS011;5028;50.974;4.968;2023-04-01T13:41:12;3.07;;;2.80;;
9974;SDS011;5028;50.974;4.968;2023-04-01T13:43:59;3.00;;;2.80;;
9974;SDS011;5028;50.974;4.968;2023-04-01T13:46:39;3.20;;;2.90;;
9974;SDS011;5028;50.974;4.968;2023-04-01T13:49:26;3.23;;;2.93;;
9974;SDS011;5028;50.974;4.968;2023-04-01T13:52:39;2.60;;;2.33;;
9974;SDS011;5028;50.974;4.968;2023-04-01T13:55:37;2.70;;;2.50;;
9974;SDS011;5028;50.974;4.968;2023-04-01T14:01:26;1.80;;;1.70;;
9974;SDS011;5028;50.974;4.968;2023-04-01T14:07:18;1.70;;;1.60;;
9974;SDS011;5028;50.974;4.968;2023-04-01T14:10:02;1.67;;;1.50;;
9974;SDS011;5028;50.974;4.968;2023-04-01T14:12:44;1.70;;;1.60;;
9974;SDS011;5028;50.974;4.968;2023-04-01T14:15:34;1.40;;;1.30;;
9974;SDS011;5028;50.974;4.968;2023-04-01T14:18:32;1.50;;;1.40;;
9974;SDS011;5028;50.974;4.968;2023-04-01T14:21:38;2.23;;;1.70;;
9974;SDS011;5028;50.974;4.968;2023-04-01T14:24:28;1.90;;;1.80;;
9974;SDS011;5028;50.974;4.968;2023-04-01T14:27:25;1.80;;;1.70;;
9974;SDS011;5028;50.974;4.968;2023-04-01T14:33:33;1.43;;;1.33;;
9974;SDS011;5028;50.974;4.968;2023-04-01T14:36:29;1.50;;;1.40;;
9974;SDS011;5028;50.974;4.968;2023-04-01T14:39:28;1.77;;;1.40;;
9974;SDS011;5028;50.974;4.968;2023-04-01T14:42:13;1.50;;;1.40;;
9974;SDS011;5028;50.974;4.968;2023-04-01T14:45:02;1.60;;;1.50;;
9974;SDS011;5028;50.974;4.968;2023-04-01T14:47:48;2.80;;;1.30;;
9974;SDS011;5028;50.974;4.968;2023-04-01T14:50:28;1.33;;;1.23;;
9974;SDS011;5028;50.974;4.968;2023-04-01T14:53:11;1.73;;;1.50;;
9974;SDS011;5028;50.974;4.968;2023-04-01T14:56:01;1.50;;;1.40;;
9974;SDS011;5028;50.974;4.968;2023-04-01T14:58:39;1.40;;;1.30;;
9974;SDS011;5028;50.974;4.968;2023-04-01T15:01:25;2.20;;;1.63;;
9974;SDS011;5028;50.974;4.968;2023-04-01T15:04:23;1.70;;;1.57;;
9974;SDS011;5028;50.974;4.968;2023-04-01T15:07:54;1.60;;;1.50;;
9974;SDS011;5028;50.974;4.968;2023-04-01T15:13:54;2.43;;;1.60;;
9974;SDS011;5028;50.974;4.968;2023-04-01T15:16:46;2.53;;;1.90;;
9974;SDS011;5028;50.974;4.968;2023-04-01T15:19:31;1.90;;;1.50;;
9974;SDS011;5028;50.974;4.968;2023-04-01T15:22:24;1.40;;;1.30;;
9974;SDS011;5028;50.974;4.968;2023-04-01T15:25:19;1.90;;;1.57;;
9974;SDS011;5028;50.974;4.968;2023-04-01T15:28:17;1.63;;;1.40;;
9974;SDS011;5028;50.974;4.968;2023-04-01T15:30:57;1.87;;;1.50;;
9974;SDS011;5028;50.974;4.968;2023-04-01T15:33:47;1.77;;;1.30;;
9974;SDS011;5028;50.974;4.968;2023-04-01T15:36:26;1.10;;;0.90;;
9974;SDS011;5028;50.974;4.968;2023-04-01T15:39:11;1.23;;;1.00;;
9974;SDS011;5028;50.974;4.968;2023-04-01T15:41:46;0.87;;;0.87;;
9974;SDS011;5028;50.974;4.968;2023-04-01T15:44:37;1.43;;;1.30;;
9974;SDS011;5028;50.974;4.968;2023-04-01T15:47:27;0.70;;;0.70;;
9974;SDS011;5028;50.974;4.968;2023-04-01T15:50:28;1.03;;;0.90;;
9974;SDS011;5028;50.974;4.968;2023-04-01T15:53:18;1.13;;;0.80;;
9974;SDS011;5028;50.974;4.968;2023-04-01T15:56:13;1.80;;;0.77;;
9974;SDS011;5028;50.974;4.968;2023-04-01T15:58:58;1.53;;;0.70;;
9974;SDS011;5028;50.974;4.968;2023-04-01T16:01:43;1.47;;;0.90;;
9974;SDS011;5028;50.974;4.968;2023-04-01T16:04:22;1.13;;;1.00;;
9974;SDS011;5028;50.974;4.968;2023-04-01T16:10:23;1.90;;;1.60;;
9974;SDS011;5028;50.974;4.968;2023-04-01T16:13:12;1.60;;;1.50;;
9974;SDS011;5028;50.974;4.968;2023-04-01T16:16:03;3.30;;;2.23;;
9974;SDS011;5028;50.974;4.968;2023-04-01T16:18:41;2.80;;;2.60;;
9974;SDS011;5028;50.974;4.968;2023-04-01T16:21:37;4.00;;;3.57;;
9974;SDS011;5028;50.974;4.968;2023-04-01T16:24:15;4.37;;;3.97;;
9974;SDS011;5028;50.974;4.968;2023-04-01T16:26:55;5.20;;;4.70;;
9974;SDS011;5028;50.974;4.968;2023-04-01T16:29:33;6.47;;;5.00;;
9974;SDS011;5028;50.974;4.968;2023-04-01T16:32:20;5.83;;;5.33;;
9974;SDS011;5028;50.974;4.968;2023-04-01T16:35:16;5.90;;;5.40;;
9974;SDS011;5028;50.974;4.968;2023-04-01T16:38:00;4.67;;;4.27;;
9974;SDS011;5028;50.974;4.968;2023-04-01T16:40:37;4.30;;;3.90;;
9974;SDS011;5028;50.974;4.968;2023-04-01T16:43:20;4.10;;;3.70;;
9974;SDS011;5028;50.974;4.968;2023-04-01T16:45:57;3.70;;;3.40;;
9974;SDS011;5028;50.974;4.968;2023-04-01T16:48:59;3.50;;;3.20;;
9974;SDS011;5028;50.974;4.968;2023-04-01T16:51:40;3.90;;;3.60;;
9974;SDS011;5028;50.974;4.968;2023-04-01T16:54:26;3.50;;;3.20;;
9974;SDS011;5028;50.974;4.968;2023-04-01T16:57:02;4.83;;;3.50;;
9974;SDS011;5028;50.974;4.968;2023-04-01T16:59:53;3.63;;;2.90;;
9974;SDS011;5028;50.974;4.968;2023-04-01T17:02:34;2.87;;;2.67;;
9974;SDS011;5028;50.974;4.968;2023-04-01T17:05:09;3.10;;;2.80;;
9974;SDS011;5028;50.974;4.968;2023-04-01T17:07:47;3.53;;;2.40;;
9974;SDS011;5028;50.974;4.968;2023-04-01T17:13:29;2.53;;;2.33;;
9974;SDS011;5028;50.974;4.968;2023-04-01T17:19:09;2.23;;;2.03;;
9974;SDS011;5028;50.974;4.968;2023-04-01T17:21:53;2.77;;;2.10;;
9974;SDS011;5028;50.974;4.968;2023-04-01T17:24:51;2.40;;;2.20;;
9974;SDS011;5028;50.974;4.968;2023-04-01T17:27:35;3.33;;;3.03;;
9974;SDS011;5028;50.974;4.968;2023-04-01T17:30:17;3.20;;;2.50;;
9974;SDS011;5028;50.974;4.968;2023-04-01T17:33:01;3.63;;;2.37;;
9974;SDS011;5028;50.974;4.968;2023-04-01T17:35:54;2.83;;;2.30;;
9974;SDS011;5028;50.974;4.968;2023-04-01T17:38:40;2.60;;;2.40;;
9974;SDS011;5028;50.974;4.968;2023-04-01T17:41:26;2.50;;;2.30;;
9974;SDS011;5028;50.974;4.968;2023-04-01T17:44:08;3.87;;;2.77;;
9974;SDS011;5028;50.974;4.968;2023-04-01T17:50:14;3.77;;;3.30;;
9974;SDS011;5028;50.974;4.968;2023-04-01T17:52:59;3.20;;;3.00;;
9974;SDS011;5028;50.974;4.968;2023-04-01T17:55:41;3.83;;;3.50;;
9974;SDS011;5028;50.974;4.968;2023-04-01T17:58:26;4.00;;;3.70;;
9974;SDS011;5028;50.974;4.968;2023-04-01T18:01:04;3.70;;;3.40;;
9974;SDS011;5028;50.974;4.968;2023-04-01T18:09:46;3.43;;;2.67;;
9974;SDS011;5028;50.974;4.968;2023-04-01T18:12:35;3.87;;;3.47;;
9974;SDS011;5028;50.974;4.968;2023-04-01T18:15:19;3.37;;;2.83;;
9974;SDS011;5028;50.974;4.968;2023-04-01T18:18:09;4.00;;;3.70;;
9974;SDS011;5028;50.974;4.968;2023-04-01T18:20:48;5.30;;;4.23;;
9974;SDS011;5028;50.974;4.968;2023-04-01T18:23:29;4.67;;;4.37;;
9974;SDS011;5028;50.974;4.968;2023-04-01T18:26:05;4.30;;;3.90;;
9974;SDS011;5028;50.974;4.968;2023-04-01T18:28:47;5.93;;;4.83;;
9974;SDS011;5028;50.974;4.968;2023-04-01T18:31:22;6.70;;;5.10;;
9974;SDS011;5028;50.974;4.968;2023-04-01T18:34:07;6.10;;;5.50;;
9974;SDS011;5028;50.974;4.968;2023-04-01T18:36:44;5.00;;;4.60;;
9974;SDS011;5028;50.974;4.968;2023-04-01T18:39:30;5.37;;;4.87;;
9974;SDS011;5028;50.974;4.968;2023-04-01T18:42:05;6.33;;;5.73;;
9974;SDS011;5028;50.974;4.968;2023-04-01T18:44:50;5.93;;;5.37;;